sensor_id;sensor_type;location;lat;lon;timestamp;pressure;altitude;pressure_sealevel;temperature;humidity
67434;BME280;54305;47.950;6.572;2023-09-07T00:00:08;94554.53;;;17.19;100.00
67434;BME280;54305;47.950;6.572;2023-09-07T00:02:35;94546.88;;;17.18;100.00
67434;BME280;54305;47.950;6.572;2023-09-07T00:05:01;94554.03;;;17.03;100.00
67434;BME280;54305;47.950;6.572;2023-09-07T00:07:26;94548.59;;;17.04;100.00
67434;BME280;54305;47.950;6.572;2023-09-07T00:09:51;94544.75;;;17.07;100.00
67434;BME280;54305;47.950;6.572;2023-09-07T00:12:16;94542.13;;;17.07;100.00
67434;BME280;54305;47.950;6.572;2023-09-07T00:14:41;94540.75;;;17.11;100.00
67434;BME280;54305;47.950;6.572;2023-09-07T00:17:07;94533.06;;;17.16;100.00
67434;BME280;54305;47.950;6.572;2023-09-07T00:19:32;94539.50;;;17.07;100.00
67434;BME280;54305;47.950;6.572;2023-09-07T00:21:58;94531.81;;;17.12;100.00
67434;BME280;54305;47.950;6.572;2023-09-07T00:24:24;94529.84;;;17.14;100.00
67434;BME280;54305;47.950;6.572;2023-09-07T00:26:49;94527.88;;;17.29;100.00
67434;BME280;54305;47.950;6.572;2023-09-07T00:29:14;94521.41;;;17.31;100.00
67434;BME280;54305;47.950;6.572;2023-09-07T00:31:40;94520.28;;;17.47;100.00
67434;BME280;54305;47.950;6.572;2023-09-07T00:34:06;94521.06;;;17.47;100.00
67434;BME280;54305;47.950;6.572;2023-09-07T00:36:31;94525.44;;;17.34;100.00
67434;BME280;54305;47.950;6.572;2023-09-07T00:38:56;94523.19;;;17.31;100.00
67434;BME280;54305;47.950;6.572;2023-09-07T00:41:22;94527.44;;;17.32;100.00
67434;BME280;54305;47.950;6.572;2023-09-07T00:43:47;94524.69;;;17.40;100.00
67434;BME280;54305;47.950;6.572;2023-09-07T00:46:12;94520.25;;;17.40;100.00
67434;BME280;54305;47.950;6.572;2023-09-07T00:48:38;94524.50;;;17.41;100.00
67434;BME280;54305;47.950;6.572;2023-09-07T00:51:03;94517.41;;;17.48;100.00
67434;BME280;54305;47.950;6.572;2023-09-07T00:53:29;94527.97;;;17.55;100.00
67434;BME280;54305;47.950;6.572;2023-09-07T00:55:54;94520.88;;;17.49;100.00
67434;BME280;54305;47.950;6.572;2023-09-07T00:58:20;94520.19;;;17.34;100.00
67434;BME280;54305;47.950;6.572;2023-09-07T01:00:46;94529.09;;;17.33;100.00
67434;BME280;54305;47.950;6.572;2023-09-07T01:03:11;94525.25;;;17.35;100.00
67434;BME280;54305;47.950;6.572;2023-09-07T01:05:58;94526.47;;;17.33;100.00
67434;BME280;54305;47.950;6.572;2023-09-07T01:08:26;94526.25;;;17.28;100.00
67434;BME280;54305;47.950;6.572;2023-09-07T01:10:54;94520.34;;;17.26;100.00
67434;BME280;54305;47.950;6.572;2023-09-07T01:13:19;94521.19;;;17.33;100.00
67434;BME280;54305;47.950;6.572;2023-09-07T01:15:45;94512.28;;;17.34;100.00
67434;BME280;54305;47.950;6.572;2023-09-07T01:18:10;94515.31;;;17.31;100.00
67434;BME280;54305;47.950;6.572;2023-09-07T01:20:36;94516.91;;;17.32;100.00
67434;BME280;54305;47.950;6.572;2023-09-07T01:23:02;94515.72;;;17.28;100.00
67434;BME280;54305;47.950;6.572;2023-09-07T01:25:28;94518.91;;;17.23;100.00
67434;BME280;54305;47.950;6.572;2023-09-07T01:27:53;94522.19;;;17.25;100.00
67434;BME280;54305;47.950;6.572;2023-09-07T01:30:18;94520.34;;;17.26;100.00
67434;BME280;54305;47.950;6.572;2023-09-07T01:32:43;94518.50;;;17.20;100.00
67434;BME280;54305;47.950;6.572;2023-09-07T01:35:09;94518.72;;;17.25;100.00
67434;BME280;54305;47.950;6.572;2023-09-07T01:37:35;94516.47;;;17.15;100.00
67434;BME280;54305;47.950;6.572;2023-09-07T01:40:00;94513.63;;;17.17;100.00
67434;BME280;54305;47.950;6.572;2023-09-07T01:42:25;94510.41;;;17.15;100.00
67434;BME280;54305;47.950;6.572;2023-09-07T01:44:51;94513.59;;;17.04;100.00
67434;BME280;54305;47.950;6.572;2023-09-07T01:47:16;94515.63;;;17.08;100.00
67434;BME280;54305;47.950;6.572;2023-09-07T01:49:41;94504.50;;;17.06;100.00
67434;BME280;54305;47.950;6.572;2023-09-07T01:52:06;94512.34;;;17.00;100.00
67434;BME280;54305;47.950;6.572;2023-09-07T01:54:32;94513.34;;;16.92;100.00
67434;BME280;54305;47.950;6.572;2023-09-07T01:56:57;94518.44;;;17.07;100.00
67434;BME280;54305;47.950;6.572;2023-09-07T01:59:22;94499.81;;;17.02;100.00
67434;BME280;54305;47.950;6.572;2023-09-07T02:01:48;94510.94;;;16.97;100.00
67434;BME280;54305;47.950;6.572;2023-09-07T02:04:13;94507.31;;;17.05;100.00
67434;BME280;54305;47.950;6.572;2023-09-07T02:06:38;94506.31;;;17.06;100.00
67434;BME280;54305;47.950;6.572;2023-09-07T02:09:04;94509.16;;;17.11;100.00
67434;BME280;54305;47.950;6.572;2023-09-07T02:11:29;94504.69;;;17.05;100.00
67434;BME280;54305;47.950;6.572;2023-09-07T02:13:54;94502.66;;;17.07;100.00
67434;BME280;54305;47.950;6.572;2023-09-07T02:16:20;94509.56;;;17.08;100.00
67434;BME280;54305;47.950;6.572;2023-09-07T02:18:45;94514.75;;;16.95;100.00
67434;BME280;54305;47.950;6.572;2023-09-07T02:21:12;94513.59;;;17.04;100.00
67434;BME280;54305;47.950;6.572;2023-09-07T02:23:37;94509.56;;;17.14;100.00
67434;BME280;54305;47.950;6.572;2023-09-07T02:26:03;94506.38;;;17.19;100.00
67434;BME280;54305;47.950;6.572;2023-09-07T02:28:29;94514.88;;;17.21;100.00
67434;BME280;54305;47.950;6.572;2023-09-07T02:30:54;94514.88;;;17.21;100.00
67434;BME280;54305;47.950;6.572;2023-09-07T02:33:19;94517.69;;;17.13;100.00
67434;BME280;54305;47.950;6.572;2023-09-07T02:35:45;94511.94;;;17.03;100.00
67434;BME280;54305;47.950;6.572;2023-09-07T02:38:12;94516.81;;;17.06;100.00
67434;BME280;54305;47.950;6.572;2023-09-07T02:40:41;94522.88;;;17.00;100.00
67434;BME280;54305;47.950;6.572;2023-09-07T02:43:07;94512.41;;;17.13;100.00
67434;BME280;54305;47.950;6.572;2023-09-07T02:45:32;94512.66;;;17.18;100.00
67434;BME280;54305;47.950;6.572;2023-09-07T02:47:57;94513.25;;;17.20;100.00
67434;BME280;54305;47.950;6.572;2023-09-07T02:50:22;94514.25;;;17.19;100.00
67434;BME280;54305;47.950;6.572;2023-09-07T02:52:48;94513.63;;;17.17;100.00
67434;BME280;54305;47.950;6.572;2023-09-07T02:55:13;94510.41;;;17.15;100.00
67434;BME280;54305;47.950;6.572;2023-09-07T02:57:38;94515.66;;;17.15;100.00
67434;BME280;54305;47.950;6.572;2023-09-07T03:00:04;94508.38;;;17.10;100.00
67434;BME280;54305;47.950;6.572;2023-09-07T03:02:34;94506.69;;;17.03;100.00
67434;BME280;54305;47.950;6.572;2023-09-07T03:05:00;94510.56;;;17.07;100.00
67434;BME280;54305;47.950;6.572;2023-09-07T03:07:25;94507.72;;;17.08;100.00
67434;BME280;54305;47.950;6.572;2023-09-07T03:09:51;94509.78;;;17.13;100.00
67434;BME280;54305;47.950;6.572;2023-09-07T03:12:17;94507.16;;;17.13;100.00
67434;BME280;54305;47.950;6.572;2023-09-07T03:14:43;94500.69;;;17.22;100.00
67434;BME280;54305;47.950;6.572;2023-09-07T03:17:08;94507.59;;;17.23;100.00
67434;BME280;54305;47.950;6.572;2023-09-07T03:19:35;94500.34;;;17.38;100.00
67434;BME280;54305;47.950;6.572;2023-09-07T03:22:00;94510.34;;;17.49;100.00
67434;BME280;54305;47.950;6.572;2023-09-07T03:24:25;94502.81;;;17.46;100.00
67434;BME280;54305;47.950;6.572;2023-09-07T03:26:51;94503.16;;;17.30;100.00
67434;BME280;54305;47.950;6.572;2023-09-07T03:29:17;94505.13;;;17.15;100.00
67434;BME280;54305;47.950;6.572;2023-09-07T03:31:42;94504.97;;;17.23;100.00
67434;BME280;54305;47.950;6.572;2023-09-07T03:34:07;94512.88;;;17.23;100.00
67434;BME280;54305;47.950;6.572;2023-09-07T03:36:32;94513.25;;;17.20;100.00
67434;BME280;54305;47.950;6.572;2023-09-07T03:38:58;94506.72;;;17.09;100.00
67434;BME280;54305;47.950;6.572;2023-09-07T03:41:23;94518.41;;;17.00;100.00
67434;BME280;54305;47.950;6.572;2023-09-07T03:43:49;94514.75;;;16.95;100.00
67434;BME280;54305;47.950;6.572;2023-09-07T03:46:14;94517.84;;;17.05;100.00
67434;BME280;54305;47.950;6.572;2023-09-07T03:48:40;94522.94;;;17.13;100.00
67434;BME280;54305;47.950;6.572;2023-09-07T03:51:05;94526.06;;;16.95;100.00
67434;BME280;54305;47.950;6.572;2023-09-07T03:53:31;94528.06;;;16.87;100.00
67434;BME280;54305;47.950;6.572;2023-09-07T03:55:56;94527.06;;;16.88;100.00
67434;BME280;54305;47.950;6.572;2023-09-07T03:58:21;94528.16;;;17.00;100.00
67434;BME280;54305;47.950;6.572;2023-09-07T04:00:46;94518.88;;;17.10;100.00
67434;BME280;54305;47.950;6.572;2023-09-07T04:03:12;94514.41;;;17.11;100.00
67434;BME280;54305;47.950;6.572;2023-09-07T04:05:38;94519.66;;;17.04;100.00
67434;BME280;54305;47.950;6.572;2023-09-07T04:08:06;94519.38;;;16.93;100.00
67434;BME280;54305;47.950;6.572;2023-09-07T04:10:31;94517.16;;;16.90;100.00
67434;BME280;54305;47.950;6.572;2023-09-07T04:12:56;94518.38;;;16.87;100.00
67434;BME280;54305;47.950;6.572;2023-09-07T04:15:22;94523.22;;;16.84;100.00
67434;BME280;54305;47.950;6.572;2023-09-07T04:17:47;94533.25;;;16.74;100.00
67434;BME280;54305;47.950;6.572;2023-09-07T04:20:12;94532.50;;;16.80;100.00
67434;BME280;54305;47.950;6.572;2023-09-07T04:22:40;94520.16;;;16.87;100.00
67434;BME280;54305;47.950;6.572;2023-09-07T04:25:06;94520.81;;;16.95;100.00
67434;BME280;54305;47.950;6.572;2023-09-07T04:27:31;94526.13;;;17.02;100.00
67434;BME280;54305;47.950;6.572;2023-09-07T04:29:56;94518.00;;;16.97;100.00
67434;BME280;54305;47.950;6.572;2023-09-07T04:32:22;94523.47;;;17.02;100.00
67434;BME280;54305;47.950;6.572;2023-09-07T04:34:47;94525.34;;;17.08;100.00
67434;BME280;54305;47.950;6.572;2023-09-07T04:37:12;94531.41;;;17.08;100.00
67434;BME280;54305;47.950;6.572;2023-09-07T04:39:37;94525.97;;;17.10;100.00
67434;BME280;54305;47.950;6.572;2023-09-07T04:42:03;94526.19;;;17.15;100.00
67434;BME280;54305;47.950;6.572;2023-09-07T04:44:28;94524.22;;;17.30;100.00
67434;BME280;54305;47.950;6.572;2023-09-07T04:46:56;94531.19;;;17.44;100.00
67434;BME280;54305;47.950;6.572;2023-09-07T04:49:23;94531.56;;;17.41;100.00
67434;BME280;54305;47.950;6.572;2023-09-07T04:51:48;94531.31;;;17.36;100.00
67434;BME280;54305;47.950;6.572;2023-09-07T04:54:14;94534.50;;;17.18;100.00
67434;BME280;54305;47.950;6.572;2023-09-07T04:56:41;94538.72;;;17.06;100.00
67434;BME280;54305;47.950;6.572;2023-09-07T04:59:06;94538.75;;;17.13;100.00
67434;BME280;54305;47.950;6.572;2023-09-07T05:01:31;94533.41;;;17.00;100.00
67434;BME280;54305;47.950;6.572;2023-09-07T05:03:57;94533.78;;;16.97;100.00
67434;BME280;54305;47.950;6.572;2023-09-07T05:06:22;94539.13;;;17.10;100.00
67434;BME280;54305;47.950;6.572;2023-09-07T05:08:51;94543.56;;;17.09;100.00
67434;BME280;54305;47.950;6.572;2023-09-07T05:11:16;94542.13;;;17.07;100.00
67434;BME280;54305;47.950;6.572;2023-09-07T05:13:41;94541.16;;;17.08;100.00
67434;BME280;54305;47.950;6.572;2023-09-07T05:16:07;94535.69;;;17.16;100.00
67434;BME280;54305;47.950;6.572;2023-09-07T05:18:32;94541.81;;;17.23;100.00
67434;BME280;54305;47.950;6.572;2023-09-07T05:20:58;94541.19;;;17.21;100.00
67434;BME280;54305;47.950;6.572;2023-09-07T05:23:23;94541.59;;;17.18;100.00
67434;BME280;54305;47.950;6.572;2023-09-07T05:25:50;94539.19;;;17.29;100.00
67434;BME280;54305;47.950;6.572;2023-09-07T05:28:17;94549.53;;;17.31;100.00
67434;BME280;54305;47.950;6.572;2023-09-07T05:30:43;94552.63;;;17.41;100.00
67434;BME280;54305;47.950;6.572;2023-09-07T05:33:11;94549.41;;;17.39;100.00
67434;BME280;54305;47.950;6.572;2023-09-07T05:35:37;94545.16;;;17.51;100.00
67434;BME280;54305;47.950;6.572;2023-09-07T05:38:03;94563.22;;;17.54;100.00
67434;BME280;54305;47.950;6.572;2023-09-07T05:40:29;94555.53;;;17.59;100.00
67434;BME280;54305;47.950;6.572;2023-09-07T05:42:54;94559.22;;;17.64;100.00
67434;BME280;54305;47.950;6.572;2023-09-07T05:45:20;94556.41;;;17.79;100.00
67434;BME280;54305;47.950;6.572;2023-09-07T05:47:45;94551.16;;;17.92;100.00
67434;BME280;54305;47.950;6.572;2023-09-07T05:50:10;94558.69;;;18.08;100.00
67434;BME280;54305;47.950;6.572;2023-09-07T05:52:36;94560.13;;;18.17;100.00
67434;BME280;54305;47.950;6.572;2023-09-07T05:55:01;94556.88;;;18.28;100.00
67434;BME280;54305;47.950;6.572;2023-09-07T05:57:26;94553.25;;;18.42;100.00
67434;BME280;54305;47.950;6.572;2023-09-07T05:59:51;94555.72;;;18.50;100.00
67434;BME280;54305;47.950;6.572;2023-09-07T06:02:17;94561.19;;;18.55;100.00
67434;BME280;54305;47.950;6.572;2023-09-07T06:04:42;94564.22;;;18.65;100.00
67434;BME280;54305;47.950;6.572;2023-09-07T06:07:08;94565.44;;;18.75;100.00
67434;BME280;54305;47.950;6.572;2023-09-07T06:09:33;94561.34;;;18.86;100.00
67434;BME280;54305;47.950;6.572;2023-09-07T06:11:58;94564.59;;;18.88;100.00
67434;BME280;54305;47.950;6.572;2023-09-07T06:14:23;94562.75;;;18.95;100.00
67434;BME280;54305;47.950;6.572;2023-09-07T06:16:49;94567.38;;;19.06;100.00
67434;BME280;54305;47.950;6.572;2023-09-07T06:19:14;94569.41;;;19.17;100.00
67434;BME280;54305;47.950;6.572;2023-09-07T06:21:39;94570.22;;;19.24;100.00
67434;BME280;54305;47.950;6.572;2023-09-07T06:24:04;94574.44;;;19.38;100.00
67434;BME280;54305;47.950;6.572;2023-09-07T06:26:31;94575.00;;;19.53;100.00
67434;BME280;54305;47.950;6.572;2023-09-07T06:28:57;94576.50;;;19.80;100.00
67434;BME280;54305;47.950;6.572;2023-09-07T06:31:22;94574.19;;;19.96;100.00
67434;BME280;54305;47.950;6.572;2023-09-07T06:33:47;94580.97;;;20.17;100.00
67434;BME280;54305;47.950;6.572;2023-09-07T06:36:13;94589.19;;;20.40;100.00
67434;BME280;54305;47.950;6.572;2023-09-07T06:38:38;94581.91;;;20.60;100.00
67434;BME280;54305;47.950;6.572;2023-09-07T06:41:03;94582.72;;;20.85;100.00
67434;BME280;54305;47.950;6.572;2023-09-07T06:43:29;94579.75;;;21.00;100.00
67434;BME280;54305;47.950;6.572;2023-09-07T06:46:01;94586.91;;;21.17;100.00
67434;BME280;54305;47.950;6.572;2023-09-07T06:48:27;94586.50;;;21.38;100.00
67434;BME280;54305;47.950;6.572;2023-09-07T06:50:52;94591.00;;;21.56;100.00
67434;BME280;54305;47.950;6.572;2023-09-07T06:53:17;94589.59;;;21.71;100.00
67434;BME280;54305;47.950;6.572;2023-09-07T06:55:42;94580.81;;;21.89;100.00
67434;BME280;54305;47.950;6.572;2023-09-07T06:58:08;94586.28;;;22.05;100.00
67434;BME280;54305;47.950;6.572;2023-09-07T07:00:33;94580.38;;;22.21;100.00
67434;BME280;54305;47.950;6.572;2023-09-07T07:02:59;94580.63;;;22.31;100.00
67434;BME280;54305;47.950;6.572;2023-09-07T07:05:24;94588.09;;;22.52;100.00
67434;BME280;54305;47.950;6.572;2023-09-07T07:07:51;94590.19;;;22.50;100.00
67434;BME280;54305;47.950;6.572;2023-09-07T07:10:17;94596.66;;;22.54;100.00
67434;BME280;54305;47.950;6.572;2023-09-07T07:12:42;94585.50;;;22.75;100.00
67434;BME280;54305;47.950;6.572;2023-09-07T07:15:07;94584.00;;;23.02;100.00
67434;BME280;54305;47.950;6.572;2023-09-07T07:17:33;94587.59;;;22.96;100.00
67434;BME280;54305;47.950;6.572;2023-09-07T07:19:58;94589.06;;;22.92;100.00
67434;BME280;54305;47.950;6.572;2023-09-07T07:22:23;94595.78;;;22.83;100.00
67434;BME280;54305;47.950;6.572;2023-09-07T07:24:49;94592.78;;;23.14;100.00
67434;BME280;54305;47.950;6.572;2023-09-07T07:27:14;94589.69;;;23.29;100.00
67434;BME280;54305;47.950;6.572;2023-09-07T07:29:40;94589.25;;;23.20;100.00
67434;BME280;54305;47.950;6.572;2023-09-07T07:32:05;94599.38;;;23.00;100.00
67434;BME280;54305;47.950;6.572;2023-09-07T07:34:30;94596.69;;;22.77;100.00
67434;BME280;54305;47.950;6.572;2023-09-07T07:36:55;94595.34;;;23.09;100.00
67434;BME280;54305;47.950;6.572;2023-09-07T07:39:21;94593.50;;;23.21;100.00
67434;BME280;54305;47.950;6.572;2023-09-07T07:41:46;94590.63;;;23.34;100.00
67434;BME280;54305;47.950;6.572;2023-09-07T07:44:11;94597.19;;;23.55;100.00
67434;BME280;54305;47.950;6.572;2023-09-07T07:46:37;94602.28;;;23.56;100.00
67434;BME280;54305;47.950;6.572;2023-09-07T07:49:02;94598.34;;;23.47;100.00
67434;BME280;54305;47.950;6.572;2023-09-07T07:51:27;94597.41;;;23.65;100.00
67434;BME280;54305;47.950;6.572;2023-09-07T07:53:53;94597.81;;;23.96;100.00
67434;BME280;54305;47.950;6.572;2023-09-07T07:56:19;94599.78;;;23.89;98.26
67434;BME280;54305;47.950;6.572;2023-09-07T07:58:44;94592.63;;;23.90;97.48
67434;BME280;54305;47.950;6.572;2023-09-07T08:01:16;94597.13;;;23.89;97.36
67434;BME280;54305;47.950;6.572;2023-09-07T08:03:42;94592.72;;;23.83;98.35
67434;BME280;54305;47.950;6.572;2023-09-07T08:06:08;94595.44;;;23.60;95.02
67434;BME280;54305;47.950;6.572;2023-09-07T08:08:33;94600.38;;;23.91;100.00
67434;BME280;54305;47.950;6.572;2023-09-07T08:10:58;94594.97;;;24.14;87.42
67434;BME280;54305;47.950;6.572;2023-09-07T08:13:25;94597.44;;;24.32;95.64
67434;BME280;54305;47.950;6.572;2023-09-07T08:15:50;94601.53;;;24.23;94.80
67434;BME280;54305;47.950;6.572;2023-09-07T08:18:16;94602.28;;;24.35;92.31
67434;BME280;54305;47.950;6.572;2023-09-07T08:20:41;94596.38;;;24.61;95.46
67434;BME280;54305;47.950;6.572;2023-09-07T08:23:06;94602.94;;;24.26;96.39
67434;BME280;54305;47.950;6.572;2023-09-07T08:25:33;94608.25;;;24.42;99.07
67434;BME280;54305;47.950;6.572;2023-09-07T08:27:58;94595.91;;;24.64;100.00
67434;BME280;54305;47.950;6.572;2023-09-07T08:30:24;94595.44;;;24.67;96.93
67434;BME280;54305;47.950;6.572;2023-09-07T08:32:50;94604.25;;;24.56;99.96
67434;BME280;54305;47.950;6.572;2023-09-07T08:35:16;94604.66;;;24.76;98.41
67434;BME280;54305;47.950;6.572;2023-09-07T08:37:42;94605.47;;;24.93;95.42
67434;BME280;54305;47.950;6.572;2023-09-07T08:40:08;94611.44;;;25.33;90.18
67434;BME280;54305;47.950;6.572;2023-09-07T08:42:37;94601.53;;;25.88;96.79
67434;BME280;54305;47.950;6.572;2023-09-07T08:45:03;94608.34;;;26.17;85.12
67434;BME280;54305;47.950;6.572;2023-09-07T08:47:31;94602.00;;;25.64;86.33
67434;BME280;54305;47.950;6.572;2023-09-07T08:49:57;94599.91;;;24.95;93.19
67434;BME280;54305;47.950;6.572;2023-09-07T08:52:23;94609.66;;;24.89;91.05
67434;BME280;54305;47.950;6.572;2023-09-07T08:54:48;94610.78;;;24.93;94.99
67434;BME280;54305;47.950;6.572;2023-09-07T08:57:15;94601.91;;;24.88;98.31
67434;BME280;54305;47.950;6.572;2023-09-07T08:59:40;94615.50;;;24.86;97.73
67434;BME280;54305;47.950;6.572;2023-09-07T09:02:09;94611.78;;;25.20;96.65
67434;BME280;54305;47.950;6.572;2023-09-07T09:04:34;94606.28;;;25.10;96.79
67434;BME280;54305;47.950;6.572;2023-09-07T09:07:00;94607.09;;;25.27;93.76
67434;BME280;54305;47.950;6.572;2023-09-07T09:09:29;94611.94;;;25.30;93.73
67434;BME280;54305;47.950;6.572;2023-09-07T09:11:54;94611.31;;;25.61;85.72
67434;BME280;54305;47.950;6.572;2023-09-07T09:14:20;94612.25;;;25.50;91.21
67434;BME280;54305;47.950;6.572;2023-09-07T09:16:51;94608.53;;;25.18;87.66
67434;BME280;54305;47.950;6.572;2023-09-07T09:19:16;94613.72;;;25.41;89.52
67434;BME280;54305;47.950;6.572;2023-09-07T09:21:42;94608.97;;;25.65;87.13
67434;BME280;54305;47.950;6.572;2023-09-07T09:24:11;94603.66;;;25.48;90.89
67434;BME280;54305;47.950;6.572;2023-09-07T09:26:37;94607.09;;;25.65;87.43
67434;BME280;54305;47.950;6.572;2023-09-07T09:29:02;94614.09;;;26.09;85.04
67434;BME280;54305;47.950;6.572;2023-09-07T09:31:27;94604.09;;;25.78;87.06
67434;BME280;54305;47.950;6.572;2023-09-07T09:33:55;94604.66;;;25.42;81.21
67434;BME280;54305;47.950;6.572;2023-09-07T09:36:20;94605.78;;;25.46;82.97
67434;BME280;54305;47.950;6.572;2023-09-07T09:38:49;94597.97;;;25.61;81.18
67434;BME280;54305;47.950;6.572;2023-09-07T09:41:15;94599.34;;;25.26;81.74
67434;BME280;54305;47.950;6.572;2023-09-07T09:43:41;94602.19;;;25.57;80.10
67434;BME280;54305;47.950;6.572;2023-09-07T09:46:06;94601.75;;;26.03;80.26
67434;BME280;54305;47.950;6.572;2023-09-07T09:48:33;94603.66;;;26.08;79.88
67434;BME280;54305;47.950;6.572;2023-09-07T09:50:58;94600.38;;;25.79;77.96
67434;BME280;54305;47.950;6.572;2023-09-07T09:53:24;94598.56;;;26.06;77.38
67434;BME280;54305;47.950;6.572;2023-09-07T09:55:52;94587.69;;;26.34;71.61
67434;BME280;54305;47.950;6.572;2023-09-07T09:58:17;94587.00;;;26.44;78.45
67434;BME280;54305;47.950;6.572;2023-09-07T10:00:46;94593.25;;;27.17;71.64
67434;BME280;54305;47.950;6.572;2023-09-07T10:05:39;94589.13;;;27.31;66.30
67434;BME280;54305;47.950;6.572;2023-09-07T10:08:08;94585.13;;;27.02;70.23
67434;BME280;54305;47.950;6.572;2023-09-07T10:10:36;94587.88;;;27.49;68.85
67434;BME280;54305;47.950;6.572;2023-09-07T10:13:02;94588.09;;;27.37;70.79
67434;BME280;54305;47.950;6.572;2023-09-07T10:15:28;94583.75;;;27.31;65.93
67434;BME280;54305;47.950;6.572;2023-09-07T10:20:29;94584.81;;;28.38;57.95
67434;BME280;54305;47.950;6.572;2023-09-07T10:23:03;94581.72;;;27.90;59.66
67434;BME280;54305;47.950;6.572;2023-09-07T10:25:29;94575.25;;;28.62;62.77
67434;BME280;54305;47.950;6.572;2023-09-07T10:27:55;94575.22;;;28.42;56.36
67434;BME280;54305;47.950;6.572;2023-09-07T10:30:20;94572.47;;;28.27;60.73
67434;BME280;54305;47.950;6.572;2023-09-07T10:32:48;94574.66;;;28.35;57.00
67434;BME280;54305;47.950;6.572;2023-09-07T10:35:14;94575.69;;;28.24;54.81
67434;BME280;54305;47.950;6.572;2023-09-07T10:37:40;94576.72;;;28.13;55.27
67434;BME280;54305;47.950;6.572;2023-09-07T10:40:06;94573.16;;;28.74;58.93
67434;BME280;54305;47.950;6.572;2023-09-07T10:42:36;94576.06;;;28.63;54.52
67434;BME280;54305;47.950;6.572;2023-09-07T10:45:08;94572.09;;;29.20;53.66
67434;BME280;54305;47.950;6.572;2023-09-07T10:47:34;94573.78;;;30.20;48.53
67434;BME280;54305;47.950;6.572;2023-09-07T10:49:59;94564.56;;;29.42;47.09
67434;BME280;54305;47.950;6.572;2023-09-07T10:52:25;94564.03;;;29.15;49.81
67434;BME280;54305;47.950;6.572;2023-09-07T10:54:56;94569.66;;;28.94;49.79
67434;BME280;54305;47.950;6.572;2023-09-07T10:57:22;94567.97;;;29.88;50.10
67434;BME280;54305;47.950;6.572;2023-09-07T10:59:47;94565.16;;;31.67;45.25
67434;BME280;54305;47.950;6.572;2023-09-07T11:02:13;94552.81;;;31.90;43.90
67434;BME280;54305;47.950;6.572;2023-09-07T11:04:40;94560.94;;;31.85;45.24
67434;BME280;54305;47.950;6.572;2023-09-07T11:07:05;94556.72;;;31.79;43.82
67434;BME280;54305;47.950;6.572;2023-09-07T11:09:31;94553.88;;;31.36;43.28
67434;BME280;54305;47.950;6.572;2023-09-07T11:11:56;94555.34;;;32.28;41.50
67434;BME280;54305;47.950;6.572;2023-09-07T11:14:22;94551.44;;;32.16;40.12
67434;BME280;54305;47.950;6.572;2023-09-07T11:16:47;94547.72;;;31.59;43.70
67434;BME280;54305;47.950;6.572;2023-09-07T11:19:13;94547.06;;;30.38;48.05
67434;BME280;54305;47.950;6.572;2023-09-07T11:21:40;94547.16;;;32.10;44.69
67434;BME280;54305;47.950;6.572;2023-09-07T11:24:05;94544.34;;;31.78;42.06
67434;BME280;54305;47.950;6.572;2023-09-07T11:26:40;94555.16;;;30.77;45.85
67434;BME280;54305;47.950;6.572;2023-09-07T11:29:05;94543.88;;;31.08;46.70
67434;BME280;54305;47.950;6.572;2023-09-07T11:31:30;94536.47;;;31.52;45.39
67434;BME280;54305;47.950;6.572;2023-09-07T11:33:56;94538.78;;;31.64;46.26
67434;BME280;54305;47.950;6.572;2023-09-07T11:36:21;94537.22;;;30.09;49.28
67434;BME280;54305;47.950;6.572;2023-09-07T11:38:49;94531.53;;;30.25;49.21
67434;BME280;54305;47.950;6.572;2023-09-07T11:41:14;94531.91;;;30.52;51.73
67434;BME280;54305;47.950;6.572;2023-09-07T11:43:40;94544.22;;;29.11;52.28
67434;BME280;54305;47.950;6.572;2023-09-07T11:46:07;94537.00;;;30.00;53.09
67434;BME280;54305;47.950;6.572;2023-09-07T11:48:32;94544.19;;;29.26;56.51
67434;BME280;54305;47.950;6.572;2023-09-07T11:50:59;94544.75;;;29.13;56.34
67434;BME280;54305;47.950;6.572;2023-09-07T11:53:24;94540.88;;;29.74;52.75
67434;BME280;54305;47.950;6.572;2023-09-07T11:55:50;94533.47;;;29.26;53.60
67434;BME280;54305;47.950;6.572;2023-09-07T11:58:15;94535.06;;;30.21;52.79
67434;BME280;54305;47.950;6.572;2023-09-07T12:00:40;94533.94;;;30.27;53.12
67434;BME280;54305;47.950;6.572;2023-09-07T12:03:06;94538.06;;;30.96;51.54
67434;BME280;54305;47.950;6.572;2023-09-07T12:05:32;94541.72;;;29.65;57.64
67434;BME280;54305;47.950;6.572;2023-09-07T12:07:57;94540.81;;;29.94;54.81
67434;BME280;54305;47.950;6.572;2023-09-07T12:10:22;94529.69;;;30.21;53.70
67434;BME280;54305;47.950;6.572;2023-09-07T12:12:47;94537.22;;;30.19;51.37
67434;BME280;54305;47.950;6.572;2023-09-07T12:15:13;94532.97;;;30.03;52.38
67434;BME280;54305;47.950;6.572;2023-09-07T12:17:38;94528.28;;;31.10;47.98
67434;BME280;54305;47.950;6.572;2023-09-07T12:20:04;94525.53;;;31.15;51.77
67434;BME280;54305;47.950;6.572;2023-09-07T12:22:38;94532.00;;;30.42;54.01
67434;BME280;54305;47.950;6.572;2023-09-07T12:25:04;94531.22;;;30.32;56.36
67434;BME280;54305;47.950;6.572;2023-09-07T12:27:33;94522.72;;;30.58;50.60
67434;BME280;54305;47.950;6.572;2023-09-07T12:29:59;94521.47;;;31.46;51.45
67434;BME280;54305;47.950;6.572;2023-09-07T12:32:24;94518.84;;;32.36;46.50
67434;BME280;54305;47.950;6.572;2023-09-07T12:34:50;94514.44;;;32.40;46.17
67434;BME280;54305;47.950;6.572;2023-09-07T12:37:18;94521.00;;;32.34;45.66
67434;BME280;54305;47.950;6.572;2023-09-07T12:39:44;94511.50;;;32.18;45.65
67434;BME280;54305;47.950;6.572;2023-09-07T12:42:09;94515.31;;;31.46;49.33
67434;BME280;54305;47.950;6.572;2023-09-07T12:44:34;94512.06;;;32.15;43.68
67434;BME280;54305;47.950;6.572;2023-09-07T12:47:00;94514.78;;;33.07;42.46
67434;BME280;54305;47.950;6.572;2023-09-07T12:49:25;94504.31;;;32.32;43.53